JAF58A EKBI-EBBR
Flight info
| Callsign | JAF58A |
|---|---|
| Flight time | N/A |
| Altitude | 35000 |
| Route | ALS6B ALS M852 EKERN DCT BASUM/N0457F360 DCT ABAMI Z717 NEREL/N0417F240 T855 AGENI/N0382F180 T855 BATTY BATTY6A |
| Aircraft | B738/M-SDE2E3FGHIRWXY/LB1 |
Departure
| Time | 2025-10-03 11:55 |
|---|---|
| Airport | Billund Airport (EKBI) |
Arrival
| Time | N/A |
|---|---|
| Airport | Brussels Airport (EBBR) |
| Time | Latitude | Longitude | Altitude | Speed | Heading |
|---|---|---|---|---|---|
| 2025-10-03 11:27 | 55.74520 | 9.14547 | 231 ft | 0 kts | 357° |
| 2025-10-03 11:43 | 55.74494 | 9.14550 | 234 ft | 2 kts | 358° |
| 2025-10-03 11:43 | 55.74462 | 9.14552 | 233 ft | 2 kts | 347° |
| 2025-10-03 11:44 | 55.74445 | 9.14579 | 233 ft | 1 kts | 265° |
| 2025-10-03 11:45 | 55.74446 | 9.14581 | 233 ft | 0 kts | 265° |
| 2025-10-03 11:47 | 55.74439 | 9.14511 | 232 ft | 8 kts | 249° |
| 2025-10-03 11:48 | 55.74303 | 9.14479 | 232 ft | 13 kts | 181° |
| 2025-10-03 11:48 | 55.74251 | 9.14122 | 228 ft | 21 kts | 269° |
| 2025-10-03 11:49 | 55.74230 | 9.13517 | 224 ft | 27 kts | 261° |
| 2025-10-03 11:49 | 55.74075 | 9.13257 | 223 ft | 0 kts | 179° |
| 2025-10-03 11:51 | 55.73981 | 9.13379 | 224 ft | 0 kts | 88° |
| 2025-10-03 11:53 | 55.74031 | 9.15010 | 239 ft | 130 kts | 88° |
| 2025-10-03 11:53 | 55.74066 | 9.16900 | 450 ft | 166 kts | 92° |
| 2025-10-03 11:54 | 55.74201 | 9.21220 | 1959 ft | 185 kts | 94° |
| 2025-10-03 11:54 | 55.74331 | 9.26111 | 3083 ft | 216 kts | 95° |
| 2025-10-03 11:55 | 55.71693 | 9.31574 | 4818 ft | 213 kts | 159° |
| 2025-10-03 11:55 | 55.68935 | 9.33904 | 5951 ft | 239 kts | 157° |
| 2025-10-03 11:56 | 55.65724 | 9.36622 | 7143 ft | 264 kts | 156° |
| 2025-10-03 11:56 | 55.62401 | 9.39470 | 8974 ft | 263 kts | 156° |
| 2025-10-03 11:57 | 55.59046 | 9.42278 | 10665 ft | 266 kts | 158° |
| 2025-10-03 11:57 | 55.57347 | 9.43676 | 11341 ft | 273 kts | 156° |
| 2025-10-03 11:58 | 55.53635 | 9.46586 | 11911 ft | 313 kts | 160° |
| 2025-10-03 11:58 | 55.47040 | 9.51082 | 13159 ft | 354 kts | 160° |
| 2025-10-03 11:59 | 55.42375 | 9.54282 | 14356 ft | 366 kts | 160° |
| 2025-10-03 11:59 | 55.38129 | 9.59409 | 15563 ft | 381 kts | 136° |
| 2025-10-03 12:00 | 55.34477 | 9.66343 | 16673 ft | 392 kts | 134° |
| 2025-10-03 12:00 | 55.30763 | 9.73524 | 17781 ft | 401 kts | 134° |
| 2025-10-03 12:01 | 55.27609 | 9.79587 | 18655 ft | 408 kts | 134° |
| 2025-10-03 12:01 | 55.25019 | 9.84525 | 19362 ft | 412 kts | 134° |
| 2025-10-03 12:02 | 55.21130 | 9.91910 | 20318 ft | 419 kts | 134° |
| 2025-10-03 12:02 | 55.17146 | 9.99446 | 21305 ft | 425 kts | 134° |
| 2025-10-03 12:03 | 55.13089 | 10.07086 | 22248 ft | 430 kts | 134° |
| 2025-10-03 12:03 | 55.06536 | 10.14499 | 23418 ft | 431 kts | 176° |
| 2025-10-03 12:04 | 55.00685 | 10.12776 | 24064 ft | 433 kts | 206° |
| 2025-10-03 12:04 | 54.95226 | 10.08133 | 24765 ft | 437 kts | 208° |
| 2025-10-03 12:06 | 54.71997 | 9.93227 | 27339 ft | 460 kts | 192° |
| 2025-10-03 12:09 | 54.43535 | 9.82027 | 30324 ft | 465 kts | 203° |
| 2025-10-03 12:10 | 54.22394 | 9.68260 | 32394 ft | 464 kts | 204° |
| 2025-10-03 12:12 | 53.99179 | 9.53533 | 34267 ft | 468 kts | 205° |
| 2025-10-03 12:14 | 53.73366 | 9.37349 | 35182 ft | 480 kts | 207° |
| 2025-10-03 12:17 | 53.44843 | 9.19722 | 35183 ft | 491 kts | 207° |
| 2025-10-03 12:18 | 53.22578 | 9.06133 | 35183 ft | 500 kts | 208° |
| 2025-10-03 12:20 | 52.96140 | 8.90193 | 35184 ft | 510 kts | 208° |
| 2025-10-03 12:22 | 52.73262 | 8.74643 | 35183 ft | 491 kts | 226° |
| 2025-10-03 12:24 | 52.47992 | 8.45234 | 35175 ft | 499 kts | 227° |